Time,TemperatureF,DewpointF,PressureIn,WindDirection,WindDirectionDegrees,WindSpeedMPH,WindSpeedGustMPH,Humidity,HourlyPrecipIn,Conditions,Clouds,dailyrainin,SoftwareType,DateUTC
2013-05-15 00:14:00,61.3,55.1,30.04,South,180,0.0,-999.0,80,-99.99,,,0.00,Acu-Link.com,2013-05-15 04:14:00,
2013-05-15 00:29:00,61.0,54.4,30.04,SSE,157,0.0,-999.0,79,-99.99,,,0.00,Acu-Link.com,2013-05-15 04:29:00,
2013-05-15 00:44:00,61.2,54.6,30.04,South,180,0.0,-999.0,79,-99.99,,,0.00,Acu-Link.com,2013-05-15 04:44:00,
2013-05-15 01:00:00,61.2,54.6,30.04,South,180,0.0,-999.0,79,-99.99,,,0.00,Acu-Link.com,2013-05-15 05:00:00,
2013-05-15 01:15:00,61.2,54.6,30.04,South,180,0.0,-999.0,79,-99.99,,,0.00,Acu-Link.com,2013-05-15 05:15:00,
2013-05-15 01:30:00,61.0,54.8,30.03,South,180,0.0,-999.0,80,-99.99,,,0.00,Acu-Link.com,2013-05-15 05:30:00,
2013-05-15 01:46:00,60.8,54.6,30.02,South,180,0.0,-999.0,80,-99.99,,,0.00,Acu-Link.com,2013-05-15 05:46:00,
2013-05-15 02:01:00,60.3,54.1,30.02,South,180,0.0,-999.0,80,-99.99,,,0.00,Acu-Link.com,2013-05-15 06:01:00,
2013-05-15 02:16:00,60.1,53.9,30.02,South,180,0.0,-999.0,80,-99.99,,,0.00,Acu-Link.com,2013-05-15 06:16:00,
2013-05-15 02:31:00,59.9,54.4,30.02,South,180,0.0,-999.0,82,-99.99,,,0.00,Acu-Link.com,2013-05-15 06:31:00,
2013-05-15 02:47:00,59.5,54.3,30.01,South,180,0.0,-999.0,83,-99.99,,,0.00,Acu-Link.com,2013-05-15 06:47:00,
2013-05-15 03:02:00,59.4,54.6,30.01,South,180,0.0,-999.0,84,-99.99,,,0.00,Acu-Link.com,2013-05-15 07:02:00,
2013-05-15 03:17:00,59.0,54.2,30.01,South,180,0.0,-999.0,84,-99.99,,,0.00,Acu-Link.com,2013-05-15 07:17:00,
2013-05-15 03:33:00,58.6,53.8,30.01,South,180,0.0,-999.0,84,-99.99,,,0.00,Acu-Link.com,2013-05-15 07:33:00,
2013-05-15 03:48:00,58.6,54.1,30.01,South,180,0.0,-999.0,85,-99.99,,,0.00,Acu-Link.com,2013-05-15 07:48:00,
2013-05-15 04:03:00,58.3,54.1,30.00,South,180,0.0,-999.0,86,-99.99,,,0.00,Acu-Link.com,2013-05-15 08:03:00,
2013-05-15 04:18:00,58.3,54.4,30.00,South,180,0.0,-999.0,87,-99.99,,,0.00,Acu-Link.com,2013-05-15 08:18:00,
2013-05-15 04:33:00,57.6,53.4,30.00,South,180,0.0,-999.0,86,-99.99,,,0.00,Acu-Link.com,2013-05-15 08:33:00,
2013-05-15 04:48:00,57.7,54.2,30.00,South,180,0.0,-999.0,88,-99.99,,,0.00,Acu-Link.com,2013-05-15 08:48:00,
2013-05-15 05:03:00,57.7,54.5,30.00,South,180,0.0,-999.0,89,-99.99,,,0.00,Acu-Link.com,2013-05-15 09:03:00,
2013-05-15 05:19:00,57.4,53.9,30.00,South,180,0.0,-999.0,88,-99.99,,,0.00,Acu-Link.com,2013-05-15 09:19:00,
2013-05-15 05:34:00,57.0,53.8,30.01,South,180,0.0,-999.0,89,-99.99,,,0.00,Acu-Link.com,2013-05-15 09:34:00,
2013-05-15 05:49:00,56.8,53.3,30.01,South,180,0.0,-999.0,88,-99.99,,,0.00,Acu-Link.com,2013-05-15 09:49:00,
2013-05-15 06:04:00,56.7,53.2,30.01,South,180,0.0,-999.0,88,-99.99,,,0.00,Acu-Link.com,2013-05-15 10:04:00,
2013-05-15 06:20:00,57.6,54.7,30.02,South,180,0.0,-999.0,90,-99.99,,,0.00,Acu-Link.com,2013-05-15 10:20:00,
2013-05-15 06:35:00,57.4,54.5,30.02,South,180,0.0,-999.0,90,-99.99,,,0.00,Acu-Link.com,2013-05-15 10:35:00,
2013-05-15 06:50:00,57.7,54.5,30.03,South,180,0.0,-999.0,89,-99.99,,,0.00,Acu-Link.com,2013-05-15 10:50:00,
2013-05-15 07:06:00,58.1,54.9,30.03,South,180,0.0,-999.0,89,-99.99,,,0.00,Acu-Link.com,2013-05-15 11:06:00,
2013-05-15 07:21:00,60.6,57.3,30.03,South,180,0.0,-999.0,89,-99.99,,,0.00,Acu-Link.com,2013-05-15 11:21:00,
2013-05-15 07:36:00,63.9,59.6,30.04,ESE,112,0.0,-999.0,86,-99.99,,,0.00,Acu-Link.com,2013-05-15 11:36:00,
2013-05-15 07:51:00,67.5,61.1,30.05,West,270,0.0,-999.0,80,-99.99,,,0.00,Acu-Link.com,2013-05-15 11:51:00,
2013-05-15 08:07:00,70.3,61.2,30.05,WNW,292,0.0,-999.0,73,-99.99,,,0.00,Acu-Link.com,2013-05-15 12:07:00,
2013-05-15 08:22:00,73.6,62.0,30.06,WNW,292,0.0,-999.0,67,-99.99,,,0.00,Acu-Link.com,2013-05-15 12:22:00,
2013-05-15 08:37:00,76.3,61.8,30.05,NW,315,0.0,-999.0,61,-99.99,,,0.00,Acu-Link.com,2013-05-15 12:37:00,
2013-05-15 08:52:00,79.3,61.7,30.05,South,180,0.0,-999.0,55,-99.99,,,0.00,Acu-Link.com,2013-05-15 12:52:00,
2013-05-15 09:07:00,84.9,63.0,30.06,East,90,0.0,-999.0,48,-99.99,,,0.00,Acu-Link.com,2013-05-15 13:07:00,
2013-05-15 09:38:00,82.4,60.1,30.06,ESE,112,0.0,-999.0,47,-99.99,,,0.00,Acu-Link.com,2013-05-15 13:38:00,
2013-05-15 10:08:00,81.7,60.7,30.07,East,90,3.2,-999.0,49,-99.99,,,0.00,Acu-Link.com,2013-05-15 14:08:00,
2013-05-15 10:23:00,83.8,60.2,30.06,ESE,112,3.7,-999.0,45,-99.99,,,0.00,Acu-Link.com,2013-05-15 14:23:00,
2013-05-15 10:39:00,82.4,59.5,30.06,ESE,112,4.7,-999.0,46,-99.99,,,0.00,Acu-Link.com,2013-05-15 14:39:00,
2013-05-15 10:54:00,84.6,60.3,30.07,SSE,157,1.7,-999.0,44,-99.99,,,0.00,Acu-Link.com,2013-05-15 14:54:00,
2013-05-15 11:09:00,84.4,59.4,30.07,South,180,3.2,-999.0,43,-99.99,,,0.00,Acu-Link.com,2013-05-15 15:09:00,
2013-05-15 11:40:00,83.7,58.8,30.06,East,90,3.7,-999.0,43,-99.99,,,0.00,Acu-Link.com,2013-05-15 15:40:00,
2013-05-15 12:11:00,86.2,59.7,30.06,SE,135,1.7,-999.0,41,-99.99,,,0.00,Acu-Link.com,2013-05-15 16:11:00,
2013-05-15 12:41:00,84.4,59.4,30.06,SE,135,3.7,-999.0,43,-99.99,,,0.00,Acu-Link.com,2013-05-15 16:41:00,
2013-05-15 12:56:00,85.8,58.7,30.05,East,90,3.2,-999.0,40,-99.99,,,0.00,Acu-Link.com,2013-05-15 16:56:00,
2013-05-15 13:12:00,86.2,60.4,30.06,ESE,112,3.2,-999.0,42,-99.99,,,0.00,Acu-Link.com,2013-05-15 17:12:00,
2013-05-15 13:27:00,86.0,58.8,30.05,ESE,112,4.7,-999.0,40,-99.99,,,0.00,Acu-Link.com,2013-05-15 17:27:00,
2013-05-15 13:42:00,86.4,60.6,30.04,SSW,202,4.2,-999.0,42,-99.99,,,0.00,Acu-Link.com,2013-05-15 17:42:00,
2013-05-15 13:57:00,86.2,60.4,30.05,SSE,157,1.7,-999.0,42,-99.99,,,0.00,Acu-Link.com,2013-05-15 17:57:00,
2013-05-15 14:28:00,84.7,60.3,30.03,SE,135,5.8,-999.0,44,-99.99,,,0.00,Acu-Link.com,2013-05-15 18:28:00,
2013-05-15 14:43:00,84.9,61.2,30.01,SE,135,5.3,-999.0,45,-99.99,,,0.00,Acu-Link.com,2013-05-15 18:43:00,
2013-05-15 14:58:00,84.9,61.2,30.01,NE,45,4.2,-999.0,45,-99.99,,,0.00,Acu-Link.com,2013-05-15 18:58:00,
2013-05-15 15:14:00,83.7,60.7,30.02,ESE,112,6.3,-999.0,46,-99.99,,,0.00,Acu-Link.com,2013-05-15 19:14:00,
2013-05-15 15:29:00,83.3,60.3,30.01,ESE,112,5.3,-999.0,46,-99.99,,,0.00,Acu-Link.com,2013-05-15 19:29:00,
2013-05-15 15:44:00,84.4,61.3,30.00,East,90,2.7,-999.0,46,-99.99,,,0.00,Acu-Link.com,2013-05-15 19:44:00,
2013-05-15 15:59:00,83.7,61.9,29.99,ENE,67,2.2,-999.0,48,-99.99,,,0.00,Acu-Link.com,2013-05-15 19:59:00,
2013-05-15 16:14:00,85.1,62.0,29.98,NE,45,2.2,-999.0,46,-99.99,,,0.00,Acu-Link.com,2013-05-15 20:14:00,
2013-05-15 16:29:00,83.3,60.9,29.98,SE,135,4.2,-999.0,47,-99.99,,,0.00,Acu-Link.com,2013-05-15 20:29:00,
2013-05-15 16:44:00,81.9,60.8,29.98,SE,135,5.3,-999.0,49,-99.99,,,0.00,Acu-Link.com,2013-05-15 20:44:00,
2013-05-15 17:00:00,81.9,61.4,29.98,SE,135,5.8,-999.0,50,-99.99,,,0.00,Acu-Link.com,2013-05-15 21:00:00,
2013-05-15 17:15:00,81.5,61.0,29.97,ESE,112,6.3,-999.0,50,-99.99,,,0.00,Acu-Link.com,2013-05-15 21:15:00,
2013-05-15 17:30:00,83.1,60.8,29.97,East,90,3.2,-999.0,47,-99.99,,,0.00,Acu-Link.com,2013-05-15 21:30:00,
2013-05-15 17:45:00,85.3,62.1,29.96,East,90,7.8,-999.0,46,-99.99,,,0.00,Acu-Link.com,2013-05-15 21:45:00,
2013-05-15 18:16:00,84.0,62.2,29.96,NE,45,1.1,-999.0,48,-99.99,,,0.00,Acu-Link.com,2013-05-15 22:16:00,
2013-05-15 18:46:00,82.4,61.9,29.96,ESE,112,3.2,-999.0,50,-99.99,,,0.00,Acu-Link.com,2013-05-15 22:46:00,
2013-05-15 19:01:00,80.6,61.3,29.96,SSW,202,3.7,-999.0,52,-99.99,,,0.00,Acu-Link.com,2013-05-15 23:01:00,
2013-05-15 19:32:00,76.5,61.1,29.97,SE,135,3.7,-999.0,59,-99.99,,,0.00,Acu-Link.com,2013-05-15 23:32:00,
2013-05-15 20:48:00,70.2,60.3,29.97,South,180,0.0,-999.0,71,-99.99,,,0.00,Acu-Link.com,2013-05-16 00:48:00,
2013-05-15 21:04:00,69.3,60.3,29.97,SSE,157,0.0,-999.0,73,-99.99,,,0.00,Acu-Link.com,2013-05-16 01:04:00,
2013-05-15 21:19:00,68.4,59.8,29.98,SSE,157,0.0,-999.0,74,-99.99,,,0.00,Acu-Link.com,2013-05-16 01:19:00,
2013-05-15 21:34:00,67.5,59.3,29.97,SSE,157,0.0,-999.0,75,-99.99,,,0.00,Acu-Link.com,2013-05-16 01:34:00,
2013-05-15 21:49:00,66.9,59.8,29.98,SSE,157,0.0,-999.0,78,-99.99,,,0.00,Acu-Link.com,2013-05-16 01:49:00,
2013-05-15 22:20:00,66.0,59.6,29.98,East,90,0.0,-999.0,80,-99.99,,,0.00,Acu-Link.com,2013-05-16 02:20:00,
2013-05-15 22:35:00,66.2,60.2,29.97,NE,45,0.0,-999.0,81,-99.99,,,0.00,Acu-Link.com,2013-05-16 02:35:00,
2013-05-15 22:50:00,66.0,60.0,29.97,NE,45,0.0,-999.0,81,-99.99,,,0.00,Acu-Link.com,2013-05-16 02:50:00,
2013-05-15 23:06:00,65.7,60.0,29.97,SE,135,0.0,-999.0,82,-99.99,,,0.00,Acu-Link.com,2013-05-16 03:06:00,
2013-05-15 23:36:00,64.8,59.8,29.98,WSW,247,0.0,-999.0,84,-99.99,,,0.00,Acu-Link.com,2013-05-16 03:36:00,